Omidiyeh, Iran
Current Conditions -  °F | °C
As of 11:00 PM on Sunday 21 Dec 2014 (Local Time) from OIAG Reporting Station
Broken Clouds Broken Clouds  
Wind Chill: 57°   Ceiling: 4000
Heat Index: 57°   Visibility: 6mi
Dew Point: 55°   Wind: 5mph
Humidity: 94%   Direction: 340°NNW
Pressure: 30"   Gusts: NA
Location:  30.75°N, 49.71°E
Report Text: OIAG 212000Z 34004KT 9999 FEW035CB BKN040 14/13 Q1016
Loading
Personal Weather Stations






























Interactive Weather Map New forecast layout! Learn more

10-Day Weather Forecast

Advertisements
Track Severe Weather on mobile